Time;durP1;ratioP1;P1;durP2;ratioP2;P2;SDS_P1;SDS_P2;PMS_P1;PMS_P2;Temp;Humidity;BMP_temperature;BMP_pressure;BME280_temperature;BME280_humidity;BME280_pressure;Samples;Min_cycle;Max_cycle;Signal;HPM_P1;HPM_P2
2022/01/16 00:01:42;;;;;;;145.43;56.88;;;0.60;99.60;;;;;;5111205;28;20019;-81
2022/01/16 00:04:09;;;;;;;151.77;61.00;;;0.50;99.80;;;;;;5110446;28;20070;-81
2022/01/16 00:06:36;;;;;;;148.73;59.67;;;0.40;99.90;;;;;;5109409;28;20065;-81
2022/01/16 00:09:17;;;;;;;149.43;63.10;;;0.40;99.90;;;;;;5105548;28;20032;-81
2022/01/16 00:11:44;;;;;;;146.93;58.57;;;0.40;99.90;;;;;;5112407;28;20028;-81
2022/01/16 00:14:13;;;;;;;149.23;57.88;;;0.30;99.90;;;;;;5110235;28;20046;-81
2022/01/16 00:16:47;;;;;;;140.80;60.47;;;0.20;99.90;;;;;;5108829;28;20012;-81
2022/01/16 00:19:14;;;;;;;137.75;58.35;;;0.20;99.90;;;;;;5104611;28;20024;-81
2022/01/16 00:21:42;;;;;;;133.18;55.83;;;0.10;99.90;;;;;;5102201;28;20032;-82
2022/01/16 00:24:11;;;;;;;144.88;53.38;;;0.10;99.90;;;;;;5103379;28;20091;-82
2022/01/16 00:26:39;;;;;;;131.15;56.30;;;0.00;99.90;;;;;;5089886;28;20032;-82
2022/01/16 00:29:10;;;;;;;130.70;53.47;;;0.00;99.90;;;;;;5092262;28;20048;-82
2022/01/16 00:31:38;;;;;;;136.48;55.05;;;0.00;99.90;;;;;;5094310;28;20024;-82
2022/01/16 00:34:05;;;;;;;134.48;54.30;;;-0.10;99.90;;;;;;5110910;28;20143;-81
2022/01/16 00:36:32;;;;;;;137.23;52.22;;;-0.10;99.90;;;;;;5111134;28;20024;-82
2022/01/16 00:38:58;;;;;;;138.80;54.80;;;-0.10;99.90;;;;;;5110538;28;20044;-81
2022/01/16 00:41:29;;;;;;;132.50;52.85;;;-0.20;99.90;;;;;;5082943;28;20040;-81
2022/01/16 00:44:07;;;;;;;148.13;56.35;;;-0.20;99.90;;;;;;5095028;28;20051;-81
2022/01/16 00:46:34;;;;;;;148.90;60.35;;;-0.30;99.90;;;;;;5094486;28;20481;-81
2022/01/16 00:49:02;;;;;;;154.50;62.38;;;-0.30;99.90;;;;;;5094332;28;20028;-81
2022/01/16 00:51:29;;;;;;;145.48;55.60;;;-0.30;99.90;;;;;;5092734;28;20085;-80
2022/01/16 00:54:00;;;;;;;153.70;58.85;;;-0.40;99.90;;;;;;5092271;28;20526;-82
2022/01/16 00:56:26;;;;;;;139.45;56.80;;;-0.40;99.90;;;;;;5093492;28;20024;-81
2022/01/16 00:58:53;;;;;;;150.80;59.33;;;-0.50;99.90;;;;;;5095372;28;20021;-82
2022/01/16 01:01:20;;;;;;;151.60;60.70;;;-0.50;99.90;;;;;;5095126;28;20032;-81
2022/01/16 01:03:47;;;;;;;149.07;58.53;;;-0.50;99.90;;;;;;5097419;28;20465;-81
2022/01/16 01:06:14;;;;;;;156.85;57.08;;;-0.60;99.90;;;;;;5097938;28;20024;-82
2022/01/16 01:08:41;;;;;;;144.75;59.78;;;-0.60;99.90;;;;;;5097377;28;20028;-82
2022/01/16 01:11:12;;;;;;;160.98;62.55;;;-0.60;99.90;;;;;;5095750;28;20466;-82
2022/01/16 01:16:27;;;;;;;160.48;63.15;;;-0.70;99.90;;;;;;5095711;28;20051;-82
2022/01/16 01:18:53;;;;;;;155.35;62.58;;;-0.70;99.90;;;;;;5095089;28;20024;-83
2022/01/16 01:21:30;;;;;;;162.20;63.72;;;-0.80;99.90;;;;;;5094818;28;20028;-82
2022/01/16 01:23:59;;;;;;;151.70;60.38;;;-0.80;99.90;;;;;;5094521;28;20123;-82
2022/01/16 01:26:33;;;;;;;151.80;61.63;;;-0.80;99.90;;;;;;5078067;28;20443;-82
2022/01/16 01:28:59;;;;;;;157.35;61.33;;;-0.80;99.90;;;;;;5093017;28;20078;-83
2022/01/16 01:31:31;;;;;;;148.30;62.28;;;-0.80;99.90;;;;;;5095633;28;20507;-82
2022/01/16 01:33:57;;;;;;;171.48;64.13;;;-0.80;99.90;;;;;;5094091;28;20074;-83
2022/01/16 01:36:24;;;;;;;139.73;60.15;;;-0.80;99.90;;;;;;5093446;28;20457;-82
2022/01/16 01:38:51;;;;;;;154.00;65.63;;;-0.90;99.90;;;;;;5095116;28;20047;-83
2022/01/16 01:41:20;;;;;;;169.23;64.07;;;-0.90;99.90;;;;;;5094200;28;20039;-83
2022/01/16 01:52:08;;;;;;;150.05;62.47;;;-0.90;99.90;;;;;;5094888;28;20079;-84
2022/01/16 01:54:36;;;;;;;166.18;71.03;;;-1.00;99.90;;;;;;5093536;28;20020;-84
2022/01/16 01:57:02;;;;;;;167.13;73.38;;;-1.00;99.90;;;;;;5093726;28;20031;-83
2022/01/16 01:59:29;;;;;;;159.25;70.90;;;-1.00;99.90;;;;;;5093884;28;20028;-84
2022/01/16 02:01:56;;;;;;;161.50;66.50;;;-1.00;99.90;;;;;;5093433;28;20028;-83
2022/01/16 02:04:23;;;;;;;164.02;67.07;;;-1.00;99.90;;;;;;5095106;28;20051;-81
2022/01/16 02:06:51;;;;;;;184.07;68.97;;;-1.00;99.90;;;;;;5095937;28;20081;-82
2022/01/16 02:09:26;;;;;;;171.50;70.30;;;-1.00;99.90;;;;;;5092758;28;20020;-82
2022/01/16 02:11:52;;;;;;;189.75;74.53;;;-1.00;99.90;;;;;;5095016;28;20031;-81
2022/01/16 02:14:54;;;;;;;194.98;79.05;;;-1.10;99.90;;;;;;5077687;28;20024;-81
2022/01/16 02:36:32;;;;;;;208.85;88.53;;;-1.30;99.90;;;;;;5111572;28;20020;-81
2022/01/16 02:39:13;;;;;;;213.52;88.47;;;-1.30;99.90;;;;;;5107979;28;20032;-80
2022/01/16 02:41:42;;;;;;;203.85;88.10;;;-1.30;99.90;;;;;;5100996;28;20080;-80
2022/01/16 02:46:50;;;;;;;203.73;82.82;;;-1.30;99.90;;;;;;5099230;28;20028;-82
2022/01/16 02:49:31;;;;;;;193.32;83.32;;;-1.30;99.90;;;;;;5103547;28;20050;-81
2022/01/16 02:52:06;;;;;;;214.73;85.67;;;-1.40;99.90;;;;;;5068513;28;20024;-82
2022/01/16 02:54:36;;;;;;;216.50;82.38;;;-1.40;99.90;;;;;;5097970;28;20066;-83
2022/01/16 02:57:04;;;;;;;202.52;81.88;;;-1.40;99.90;;;;;;5094696;28;20107;-82
2022/01/16 02:59:30;;;;;;;209.13;85.55;;;-1.40;99.90;;;;;;5095499;28;20078;-83
2022/01/16 03:01:58;;;;;;;207.07;84.53;;;-1.40;99.90;;;;;;5094180;28;20055;-82
2022/01/16 03:04:24;;;;;;;222.77;83.00;;;-1.50;99.90;;;;;;5098443;28;20023;-81
2022/01/16 03:06:51;;;;;;;192.05;79.82;;;-1.50;99.90;;;;;;5094306;28;20028;-83
2022/01/16 03:09:19;;;;;;;192.73;77.72;;;-1.50;99.90;;;;;;5094219;28;20016;-82
2022/01/16 03:11:48;;;;;;;204.05;75.18;;;-1.50;99.90;;;;;;5092759;28;20099;-82
2022/01/16 03:14:17;;;;;;;190.63;76.53;;;-1.50;99.90;;;;;;5096257;28;20016;-83
2022/01/16 03:16:49;;;;;;;192.02;77.28;;;-1.50;99.90;;;;;;5093159;28;20043;-83
2022/01/16 03:22:05;;;;;;;204.75;82.05;;;-1.50;99.90;;;;;;5097158;28;20389;-83
2022/01/16 03:24:55;;;;;;;188.93;79.00;;;-1.60;99.90;;;;;;5096627;28;20469;-82
2022/01/16 03:27:20;;;;;;;211.95;84.15;;;-1.60;99.90;;;;;;5095349;28;20046;-81
2022/01/16 03:29:52;;;;;;;193.35;81.00;;;-1.60;99.90;;;;;;5077025;28;20567;-82
2022/01/16 03:32:27;;;;;;;217.82;85.80;;;-1.60;99.90;;;;;;5097280;28;20078;-82
2022/01/16 03:34:53;;;;;;;218.63;84.97;;;-1.60;99.90;;;;;;5098734;28;20454;-83
2022/01/16 03:37:19;;;;;;;195.43;78.90;;;-1.70;99.90;;;;;;5099763;28;20016;-82
2022/01/16 03:39:47;;;;;;;214.68;81.55;;;-1.70;99.90;;;;;;5079516;28;20541;-82
2022/01/16 03:42:22;;;;;;;198.75;81.80;;;-1.70;99.90;;;;;;5097122;28;20062;-83
2022/01/16 03:44:49;;;;;;;204.18;84.05;;;-1.70;99.90;;;;;;5096232;28;20020;-82
2022/01/16 03:47:14;;;;;;;218.00;92.32;;;-1.70;99.90;;;;;;5096381;28;20138;-83
2022/01/16 03:49:40;;;;;;;200.10;83.22;;;-1.70;99.90;;;;;;5097442;28;20464;-83
2022/01/16 03:52:07;;;;;;;201.27;76.68;;;-1.70;99.90;;;;;;5096772;28;20027;-83
2022/01/16 03:54:34;;;;;;;208.93;81.00;;;-1.70;99.90;;;;;;5097728;28;20050;-82
2022/01/16 03:57:01;;;;;;;206.77;81.47;;;-1.70;99.90;;;;;;5099004;28;20020;-82
2022/01/16 03:59:28;;;;;;;193.90;79.10;;;-1.70;99.90;;;;;;5096353;28;20176;-84
2022/01/16 04:01:55;;;;;;;233.98;94.57;;;-1.70;99.90;;;;;;5095658;28;20077;-83
2022/01/16 04:04:22;;;;;;;232.07;90.50;;;-1.70;99.90;;;;;;5097264;28;20020;-82
2022/01/16 04:06:50;;;;;;;243.52;90.50;;;-1.70;99.90;;;;;;5095852;28;20020;-83
2022/01/16 04:09:16;;;;;;;206.00;83.47;;;-1.70;99.90;;;;;;5096499;28;20479;-81
2022/01/16 04:11:50;;;;;;;192.65;77.65;;;-1.70;99.90;;;;;;5096467;28;20046;-83
2022/01/16 04:14:22;;;;;;;185.38;74.82;;;-1.70;99.90;;;;;;5080038;28;20033;-82
2022/01/16 04:16:51;;;;;;;185.23;76.22;;;-1.70;99.90;;;;;;5099699;28;20096;-82
2022/01/16 04:19:18;;;;;;;205.88;85.78;;;-1.70;99.90;;;;;;5101286;28;20062;-83
2022/01/16 04:21:44;;;;;;;198.85;77.22;;;-1.70;99.90;;;;;;5084216;28;20043;-82
2022/01/16 04:24:11;;;;;;;189.88;76.53;;;-1.80;99.90;;;;;;5101495;28;20028;-82
2022/01/16 04:26:37;;;;;;;182.20;74.97;;;-1.80;99.90;;;;;;5102879;28;20028;-82
2022/01/16 04:29:04;;;;;;;211.82;82.15;;;-1.80;99.90;;;;;;5096584;28;20040;-82
2022/01/16 04:31:32;;;;;;;187.43;73.75;;;-1.80;99.90;;;;;;5094982;28;20077;-82
2022/01/16 04:33:58;;;;;;;197.43;78.10;;;-1.90;99.90;;;;;;5095642;28;20092;-82
2022/01/16 04:36:25;;;;;;;184.70;72.25;;;-1.90;99.90;;;;;;5099103;28;20028;-82
2022/01/16 04:38:52;;;;;;;202.43;81.88;;;-2.00;99.90;;;;;;5101377;28;20388;-82
2022/01/16 04:44:05;;;;;;;205.88;81.88;;;-2.20;99.90;;;;;;5102041;28;20109;-82
2022/01/16 04:46:33;;;;;;;209.88;81.13;;;-2.20;99.90;;;;;;5094300;28;20035;-82
2022/01/16 04:49:00;;;;;;;203.02;82.13;;;-2.20;99.90;;;;;;5094403;28;20028;-82
2022/01/16 04:51:35;;;;;;;214.25;81.30;;;-2.20;99.90;;;;;;5077416;28;20032;-82
2022/01/16 04:54:01;;;;;;;190.60;78.38;;;-2.20;99.90;;;;;;5094658;28;20052;-82
2022/01/16 04:56:28;;;;;;;195.82;77.07;;;-2.20;99.90;;;;;;5094837;28;20439;-81
2022/01/16 04:58:54;;;;;;;196.60;75.18;;;-2.20;99.90;;;;;;5078645;28;20024;-82
2022/01/16 05:01:20;;;;;;;200.73;76.85;;;-2.20;99.90;;;;;;5094864;28;20036;-82
2022/01/16 05:03:46;;;;;;;200.57;73.75;;;-2.20;99.90;;;;;;5095166;28;20051;-81
2022/01/16 05:06:14;;;;;;;191.60;77.13;;;-2.20;99.90;;;;;;5093995;28;20035;-81
2022/01/16 05:08:41;;;;;;;189.75;72.88;;;-2.10;99.90;;;;;;5093628;28;20483;-82
2022/01/16 05:11:08;;;;;;;192.25;76.38;;;-2.10;99.90;;;;;;5094942;28;20024;-82
2022/01/16 05:19:09;;;;;;;191.20;72.45;;;-2.10;99.90;;;;;;5095085;28;20032;-82
2022/01/16 05:21:44;;;;;;;185.43;74.78;;;-2.10;99.90;;;;;;5094792;28;20403;-81
2022/01/16 05:24:12;;;;;;;179.32;77.55;;;-2.10;99.90;;;;;;5094753;28;20020;-82
2022/01/16 05:26:42;;;;;;;175.98;72.50;;;-2.10;99.90;;;;;;5094809;28;20024;-83
2022/01/16 05:29:12;;;;;;;184.00;72.47;;;-2.10;99.90;;;;;;5093153;28;20044;-83
2022/01/16 05:31:49;;;;;;;183.75;76.80;;;-2.10;99.90;;;;;;5094581;28;20376;-83
2022/01/16 05:34:25;;;;;;;178.95;74.53;;;-2.20;99.90;;;;;;5094460;28;20095;-83
2022/01/16 05:36:52;;;;;;;183.07;71.40;;;-2.20;99.90;;;;;;5093835;28;20032;-82
2022/01/16 05:39:18;;;;;;;192.13;72.05;;;-2.20;99.90;;;;;;5094778;28;20070;-83
2022/01/16 05:41:44;;;;;;;179.27;72.85;;;-2.20;99.90;;;;;;5094744;28;20036;-82
2022/01/16 05:44:11;;;;;;;176.05;70.53;;;-2.20;99.90;;;;;;5093155;28;20157;-84
2022/01/16 05:46:39;;;;;;;177.90;71.68;;;-2.20;99.90;;;;;;5094547;28;20032;-83
2022/01/16 05:49:05;;;;;;;170.50;67.75;;;-2.20;99.90;;;;;;5092917;28;20419;-82
2022/01/16 05:51:30;;;;;;;184.13;71.40;;;-2.20;99.90;;;;;;5094576;28;20026;-83
2022/01/16 05:53:57;;;;;;;175.52;70.18;;;-2.20;99.90;;;;;;5095369;28;20023;-83
2022/01/16 05:56:24;;;;;;;163.52;64.55;;;-2.20;99.90;;;;;;5095168;28;20052;-83
2022/01/16 05:58:51;;;;;;;180.43;68.50;;;-2.20;99.90;;;;;;5093347;28;20507;-81
2022/01/16 06:01:18;;;;;;;162.57;67.65;;;-2.30;99.90;;;;;;5094470;28;20028;-83
2022/01/16 06:03:46;;;;;;;164.07;66.82;;;-2.30;99.90;;;;;;5094283;28;20040;-82
2022/01/16 06:06:13;;;;;;;185.70;73.25;;;-2.30;99.90;;;;;;5095043;28;20488;-83
2022/01/16 06:08:40;;;;;;;175.55;70.60;;;-2.30;99.90;;;;;;5094729;28;20024;-82
2022/01/16 06:11:08;;;;;;;192.48;74.70;;;-2.30;99.90;;;;;;5095580;28;20026;-82
2022/01/16 06:13:34;;;;;;;192.93;70.80;;;-2.30;99.90;;;;;;5095023;28;20484;-82
2022/01/16 06:16:03;;;;;;;172.73;68.50;;;-2.30;99.90;;;;;;5094092;28;20055;-83
2022/01/16 06:18:29;;;;;;;182.07;68.00;;;-2.30;99.90;;;;;;5094457;28;20016;-83
2022/01/16 06:20:56;;;;;;;159.77;67.07;;;-2.30;99.90;;;;;;5094762;28;20039;-82
2022/01/16 06:23:26;;;;;;;162.88;63.15;;;-2.30;99.90;;;;;;5094733;28;20426;-82
2022/01/16 06:25:55;;;;;;;160.05;66.00;;;-2.30;99.90;;;;;;5094414;28;20477;-83
2022/01/16 06:28:25;;;;;;;165.38;62.58;;;-2.30;99.90;;;;;;5094649;28;20031;-82
2022/01/16 06:30:52;;;;;;;165.88;64.25;;;-2.30;99.90;;;;;;5092899;28;20043;-83
2022/01/16 06:33:17;;;;;;;154.48;62.90;;;-2.30;99.90;;;;;;5092834;28;20024;-83
2022/01/16 06:35:44;;;;;;;160.93;62.67;;;-2.40;99.90;;;;;;5101593;28;20024;-82
2022/01/16 06:38:10;;;;;;;158.10;61.38;;;-2.30;99.90;;;;;;5108020;28;20024;-82
2022/01/16 06:40:37;;;;;;;161.50;65.40;;;-2.30;99.90;;;;;;5106311;28;20110;-81
2022/01/16 06:43:05;;;;;;;147.35;61.45;;;-2.30;99.90;;;;;;5086858;28;20035;-81
2022/01/16 06:45:32;;;;;;;161.88;62.30;;;-2.30;99.90;;;;;;5078886;28;20031;-81
2022/01/16 06:48:01;;;;;;;147.55;61.85;;;-2.30;99.90;;;;;;5077494;28;20028;-81
2022/01/16 06:50:29;;;;;;;157.18;61.17;;;-2.30;99.90;;;;;;5073999;28;20016;-81
2022/01/16 06:52:56;;;;;;;157.18;60.67;;;-2.30;99.90;;;;;;5074494;28;20032;-80
2022/01/16 06:55:23;;;;;;;156.35;60.42;;;-2.30;99.90;;;;;;5075746;28;20017;-81
2022/01/16 06:57:49;;;;;;;136.63;57.47;;;-2.20;99.90;;;;;;5075790;28;20021;-83
2022/01/16 07:00:16;;;;;;;149.93;61.00;;;-2.30;99.90;;;;;;5062753;28;20024;-83
2022/01/16 07:02:43;;;;;;;154.45;62.17;;;-2.20;99.90;;;;;;5075446;28;20031;-83
2022/01/16 07:05:10;;;;;;;143.63;58.63;;;-2.30;99.90;;;;;;5077351;28;20034;-83
2022/01/16 07:07:36;;;;;;;156.57;60.28;;;-2.20;99.90;;;;;;5098537;28;20059;-82
2022/01/16 07:10:03;;;;;;;148.63;60.72;;;-2.20;99.90;;;;;;5078726;28;20060;-83
2022/01/16 07:12:30;;;;;;;157.60;60.08;;;-2.20;99.90;;;;;;5080858;28;20034;-82
2022/01/16 07:14:57;;;;;;;135.80;56.42;;;-2.20;99.90;;;;;;5098961;28;20063;-83
2022/01/16 07:17:24;;;;;;;152.77;56.65;;;-2.20;99.90;;;;;;5099231;28;20028;-82
2022/01/16 07:19:50;;;;;;;147.77;56.08;;;-2.10;99.90;;;;;;5080302;28;20020;-82
2022/01/16 07:22:21;;;;;;;143.40;58.00;;;-2.10;99.90;;;;;;5098698;28;20452;-81
2022/01/16 07:25:02;;;;;;;155.80;60.08;;;-2.00;99.90;;;;;;5098313;28;20026;-83
2022/01/16 07:27:30;;;;;;;145.40;58.53;;;-2.00;99.90;;;;;;5097708;28;20368;-85
2022/01/16 07:29:58;;;;;;;149.80;56.33;;;-1.90;99.90;;;;;;5096782;28;20699;-85
2022/01/16 07:32:26;;;;;;;142.25;58.33;;;-1.90;99.90;;;;;;5100749;28;20013;-80
2022/01/16 07:34:51;;;;;;;144.55;61.70;;;-1.80;99.90;;;;;;5104826;28;20028;-79
2022/01/16 07:37:19;;;;;;;153.32;62.17;;;-1.80;99.90;;;;;;5098482;28;20145;-79
2022/01/16 07:39:44;;;;;;;149.98;62.35;;;-1.70;99.90;;;;;;5096849;28;20028;-79
2022/01/16 07:42:11;;;;;;;169.10;63.85;;;-1.70;99.90;;;;;;5078306;28;20035;-77
2022/01/16 07:44:38;;;;;;;148.88;60.85;;;-1.60;99.90;;;;;;5096013;28;20040;-78
2022/01/16 07:47:05;;;;;;;153.32;62.42;;;-1.60;99.90;;;;;;5095919;28;20378;-78
2022/01/16 07:49:33;;;;;;;137.20;60.85;;;-1.50;99.90;;;;;;5078143;28;20107;-78
2022/01/16 07:51:59;;;;;;;147.45;58.35;;;-1.50;99.90;;;;;;5078259;28;20028;-78
2022/01/16 07:54:26;;;;;;;141.82;62.30;;;-1.40;99.90;;;;;;5085206;28;20024;-78
2022/01/16 07:56:52;;;;;;;154.43;59.40;;;-1.40;99.90;;;;;;5075333;28;20035;-78
2022/01/16 07:59:18;;;;;;;134.70;58.75;;;-1.30;99.90;;;;;;5075468;28;20036;-78
2022/01/16 08:01:44;;;;;;;143.98;57.33;;;-1.30;99.90;;;;;;5075779;28;20381;-78
2022/01/16 08:04:11;;;;;;;154.05;58.28;;;-1.20;99.90;;;;;;5059103;28;20057;-80
2022/01/16 08:06:37;;;;;;;151.20;57.25;;;-1.20;99.90;;;;;;5075740;28;20096;-80
2022/01/16 08:09:04;;;;;;;151.93;60.92;;;-1.20;99.90;;;;;;5057668;28;20120;-81
2022/01/16 08:11:31;;;;;;;142.38;56.28;;;-1.20;99.90;;;;;;5075944;28;20024;-80
2022/01/16 08:13:57;;;;;;;130.23;56.33;;;-1.00;99.90;;;;;;5057740;28;20478;-81
2022/01/16 08:16:27;;;;;;;139.63;59.75;;;-1.00;99.90;;;;;;5075571;28;20016;-81
2022/01/16 08:18:53;;;;;;;156.30;61.22;;;-0.90;99.90;;;;;;5088953;28;20088;-82
2022/01/16 08:21:21;;;;;;;134.90;55.15;;;-0.80;99.90;;;;;;5094963;28;20036;-81
2022/01/16 08:23:52;;;;;;;128.73;55.63;;;-0.60;99.90;;;;;;5094841;28;20024;-80
2022/01/16 08:26:18;;;;;;;150.57;62.07;;;-0.50;99.90;;;;;;5094981;28;20032;-79
2022/01/16 08:28:43;;;;;;;132.07;57.20;;;-0.40;99.90;;;;;;5094733;28;20385;-78
2022/01/16 08:31:09;;;;;;;135.80;57.05;;;-0.30;99.90;;;;;;5094978;28;20028;-82
2022/01/16 08:33:36;;;;;;;140.82;55.83;;;-0.10;99.90;;;;;;5077089;28;20016;-80
2022/01/16 08:36:05;;;;;;;135.18;53.00;;;0.10;99.90;;;;;;5095263;28;20027;-79
2022/01/16 08:38:33;;;;;;;130.05;59.08;;;0.20;99.90;;;;;;5067448;28;20032;-82
2022/01/16 08:41:01;;;;;;;144.45;60.90;;;0.50;99.90;;;;;;5096822;28;20111;-83
2022/01/16 08:43:29;;;;;;;150.40;60.78;;;0.70;99.60;;;;;;5084748;28;20031;-79
2022/01/16 08:45:56;;;;;;;143.55;62.83;;;0.90;98.50;;;;;;5094672;28;20504;-77
2022/01/16 08:48:23;;;;;;;141.38;65.53;;;1.10;97.30;;;;;;5076833;28;20024;-79
2022/01/16 08:50:50;;;;;;;138.68;59.92;;;1.30;96.90;;;;;;5077460;28;20077;-78
2022/01/16 08:53:17;;;;;;;140.15;61.28;;;1.60;97.70;;;;;;5077031;28;20020;-78
2022/01/16 08:55:42;;;;;;;147.60;61.88;;;1.90;96.10;;;;;;5076442;28;20086;-81
2022/01/16 08:58:11;;;;;;;135.02;59.72;;;2.20;95.40;;;;;;5095661;28;20484;-75
2022/01/16 09:00:38;;;;;;;132.32;57.50;;;2.40;96.00;;;;;;5093479;28;20031;-75
2022/01/16 09:03:04;;;;;;;136.43;61.45;;;2.50;95.50;;;;;;5066181;28;20032;-78
2022/01/16 09:05:30;;;;;;;129.10;56.00;;;2.70;93.70;;;;;;5088515;28;20469;-76
2022/01/16 09:07:56;;;;;;;123.07;56.40;;;2.90;93.40;;;;;;5061713;28;20455;-75
2022/01/16 09:10:25;;;;;;;120.70;55.65;;;3.00;92.70;;;;;;5067299;28;20097;-75
2022/01/16 09:12:53;;;;;;;137.35;59.45;;;3.30;93.60;;;;;;5061802;28;20012;-77
2022/01/16 09:15:20;;;;;;;137.80;61.30;;;3.40;92.90;;;;;;5074596;28;20020;-77
2022/01/16 09:17:46;;;;;;;124.82;56.22;;;3.50;92.10;;;;;;5065055;28;20047;-77
2022/01/16 09:20:13;;;;;;;123.80;58.35;;;3.50;92.20;;;;;;5075503;28;20020;-77
2022/01/16 09:22:43;;;;;;;123.90;52.75;;;3.70;92.40;;;;;;5093182;28;20031;-75
2022/01/16 09:25:11;;;;;;;117.63;53.90;;;3.80;91.20;;;;;;5094238;28;20016;-73
2022/01/16 09:27:40;;;;;;;115.40;52.47;;;3.90;90.90;;;;;;5095703;28;20019;-78
2022/01/16 09:30:08;;;;;;;102.32;49.72;;;4.10;91.20;;;;;;5093578;28;20047;-78
2022/01/16 09:32:36;;;;;;;107.05;51.67;;;4.30;90.70;;;;;;5059816;28;20016;-75
2022/01/16 09:35:11;;;;;;;121.45;51.42;;;4.40;90.00;;;;;;5059533;28;20024;-74
2022/01/16 09:37:39;;;;;;;106.82;49.63;;;4.70;89.10;;;;;;5094208;28;20373;-76
2022/01/16 09:40:15;;;;;;;111.97;46.85;;;4.90;88.00;;;;;;5075077;28;20036;-76
2022/01/16 09:42:47;;;;;;;103.22;49.40;;;5.00;86.90;;;;;;5058083;28;20036;-74
2022/01/16 09:45:16;;;;;;;100.63;47.13;;;5.10;85.10;;;;;;5074086;28;20047;-75
2022/01/16 09:47:46;;;;;;;94.25;46.65;;;5.30;85.20;;;;;;5075056;28;20034;-77
2022/01/16 09:50:18;;;;;;;102.07;48.42;;;5.30;84.30;;;;;;5075710;28;20423;-75
2022/01/16 09:52:53;;;;;;;96.43;48.20;;;5.50;82.90;;;;;;5094249;28;20020;-76
2022/01/16 09:55:27;;;;;;;95.35;45.95;;;5.40;80.70;;;;;;5093293;28;20020;-76
2022/01/16 09:57:55;;;;;;;97.93;46.67;;;5.30;79.90;;;;;;5092927;28;20024;-75
2022/01/16 10:00:24;;;;;;;103.15;47.90;;;5.10;81.90;;;;;;5092781;28;20023;-76
2022/01/16 10:02:51;;;;;;;101.10;46.50;;;5.10;81.40;;;;;;5074842;28;20082;-76
2022/01/16 10:05:35;;;;;;;94.15;46.38;;;5.10;81.80;;;;;;5074650;28;20028;-75
2022/01/16 10:08:29;;;;;;;103.38;45.20;;;5.00;82.10;;;;;;5074634;28;20020;-77
2022/01/16 10:10:56;;;;;;;100.25;47.13;;;5.00;82.10;;;;;;5093302;28;20017;-75
2022/01/16 10:13:41;;;;;;;92.70;46.22;;;5.00;82.80;;;;;;5075603;28;20066;-76
2022/01/16 10:16:08;;;;;;;92.00;43.33;;;4.90;82.50;;;;;;5077869;28;20095;-75
2022/01/16 10:18:40;;;;;;;99.20;43.00;;;5.00;83.10;;;;;;5075460;28;20302;-75
2022/01/16 10:21:08;;;;;;;94.88;45.22;;;5.10;84.00;;;;;;5058925;28;20028;-75
2022/01/16 10:23:44;;;;;;;81.63;42.75;;;5.30;83.60;;;;;;5075524;28;20055;-75
2022/01/16 10:26:23;;;;;;;89.70;40.80;;;5.40;84.50;;;;;;5093660;28;20027;-75
2022/01/16 10:28:51;;;;;;;89.70;42.92;;;5.60;84.10;;;;;;5093538;28;20062;-75
2022/01/16 10:31:25;;;;;;;89.95;41.40;;;5.80;82.50;;;;;;5075389;28;20477;-75
2022/01/16 10:33:52;;;;;;;80.72;39.65;;;5.90;81.00;;;;;;5076397;28;20025;-75
2022/01/16 10:36:51;;;;;;;78.97;38.90;;;5.90;80.70;;;;;;5058945;28;20035;-75
2022/01/16 10:39:17;;;;;;;83.45;40.22;;;6.10;80.30;;;;;;5031607;28;20040;-75
2022/01/16 10:41:43;;;;;;;86.68;40.70;;;6.00;78.90;;;;;;5075689;28;20020;-76
2022/01/16 10:44:30;;;;;;;87.90;42.00;;;6.00;80.20;;;;;;5093552;28;20073;-74
2022/01/16 10:46:57;;;;;;;82.72;36.67;;;6.10;80.90;;;;;;5075768;28;20025;-75
2022/01/16 10:49:22;;;;;;;76.22;38.92;;;6.10;80.30;;;;;;5075383;28;20036;-76
2022/01/16 10:52:09;;;;;;;74.72;38.95;;;6.20;80.00;;;;;;5075396;28;20446;-75
2022/01/16 10:54:42;;;;;;;72.15;35.78;;;6.20;79.70;;;;;;5059417;28;20040;-76
2022/01/16 10:57:38;;;;;;;78.55;37.30;;;6.20;80.00;;;;;;5075217;28;20024;-75
2022/01/16 11:00:10;;;;;;;85.18;39.28;;;6.30;79.70;;;;;;5076195;28;20043;-75
2022/01/16 11:02:39;;;;;;;83.88;39.85;;;6.30;79.60;;;;;;5093708;28;20020;-75
2022/01/16 11:05:16;;;;;;;86.82;40.15;;;6.20;79.70;;;;;;5093477;28;20028;-75
2022/01/16 11:07:44;;;;;;;80.45;37.20;;;6.30;80.30;;;;;;5093377;28;20464;-76
2022/01/16 11:10:21;;;;;;;73.53;36.90;;;6.30;80.30;;;;;;5093471;28;20027;-75
2022/01/16 11:12:49;;;;;;;73.43;34.55;;;6.40;79.50;;;;;;5093488;28;20050;-75
2022/01/16 11:15:24;;;;;;;72.10;34.35;;;6.40;79.80;;;;;;5075393;28;20044;-75
2022/01/16 11:17:53;;;;;;;68.90;33.28;;;6.40;78.50;;;;;;5093194;28;20025;-76
2022/01/16 11:20:27;;;;;;;65.30;32.33;;;6.40;79.00;;;;;;5075136;28;20069;-76
2022/01/16 11:25:33;;;;;;;68.43;33.28;;;6.50;79.00;;;;;;5093610;28;20060;-75
2022/01/16 11:28:22;;;;;;;62.83;32.20;;;6.50;79.00;;;;;;5075653;28;20472;-75
2022/01/16 11:30:52;;;;;;;64.22;33.88;;;6.60;78.50;;;;;;5075009;28;20536;-75
2022/01/16 11:33:19;;;;;;;62.53;30.38;;;6.70;78.10;;;;;;5075544;28;20036;-75
2022/01/16 11:35:58;;;;;;;66.75;31.48;;;6.80;77.80;;;;;;5058248;28;20311;-76
2022/01/16 11:38:28;;;;;;;67.93;32.75;;;6.90;77.80;;;;;;5058944;28;20115;-76
2022/01/16 11:41:01;;;;;;;71.05;33.30;;;6.90;77.70;;;;;;5093012;28;20020;-76
2022/01/16 11:43:31;;;;;;;68.05;34.00;;;7.00;77.40;;;;;;5075384;28;20483;-76
2022/01/16 11:46:25;;;;;;;63.72;32.85;;;7.10;77.10;;;;;;5093202;28;20049;-77
2022/01/16 11:49:05;;;;;;;62.13;30.70;;;7.20;76.60;;;;;;5089847;28;20101;-76
2022/01/16 11:51:39;;;;;;;67.20;33.05;;;7.30;76.50;;;;;;5093167;28;20023;-76
2022/01/16 11:54:27;;;;;;;65.20;33.17;;;7.30;76.10;;;;;;5096687;28;20021;-75
2022/01/16 11:56:59;;;;;;;64.97;34.45;;;7.40;76.00;;;;;;5078177;28;20115;-76
2022/01/16 11:59:38;;;;;;;72.70;32.40;;;7.40;75.90;;;;;;5062281;28;20039;-76
2022/01/16 12:02:11;;;;;;;65.65;32.38;;;7.40;75.70;;;;;;5096732;28;20024;-76
2022/01/16 12:04:54;;;;;;;71.25;33.90;;;7.30;75.80;;;;;;5096171;28;20572;-76
2022/01/16 12:07:23;;;;;;;76.10;34.60;;;7.20;75.30;;;;;;5096273;28;20024;-76
2022/01/16 12:09:57;;;;;;;78.35;37.58;;;7.10;74.80;;;;;;5096029;28;20024;-76
2022/01/16 12:12:26;;;;;;;75.68;34.38;;;6.90;75.60;;;;;;5079270;28;20023;-76
2022/01/16 12:15:06;;;;;;;72.45;34.00;;;6.80;76.70;;;;;;5077916;28;20028;-76
2022/01/16 12:17:44;;;;;;;66.78;34.13;;;6.70;76.60;;;;;;5077801;28;20027;-76
2022/01/16 12:20:11;;;;;;;72.55;33.28;;;6.70;77.50;;;;;;5077835;28;20082;-77
2022/01/16 12:22:55;;;;;;;71.07;35.50;;;6.70;77.70;;;;;;5096089;28;20028;-76
2022/01/16 12:25:44;;;;;;;78.90;33.75;;;6.70;77.80;;;;;;5096085;28;20028;-76
2022/01/16 12:28:22;;;;;;;72.03;33.35;;;6.70;78.40;;;;;;5077407;28;20025;-76
2022/01/16 12:30:49;;;;;;;75.70;33.83;;;6.70;78.30;;;;;;5095759;28;20023;-77
2022/01/16 12:33:14;;;;;;;60.63;31.98;;;6.60;78.10;;;;;;5095925;28;20024;-77
2022/01/16 12:35:51;;;;;;;63.17;32.17;;;6.60;78.20;;;;;;5077437;28;20024;-76
2022/01/16 12:38:19;;;;;;;66.38;32.28;;;6.70;78.10;;;;;;5077647;28;20039;-76
2022/01/16 12:41:02;;;;;;;64.75;31.83;;;6.70;77.70;;;;;;5095649;28;20032;-76
2022/01/16 12:43:33;;;;;;;74.55;33.88;;;6.80;77.50;;;;;;5095766;28;20491;-76
2022/01/16 12:46:13;;;;;;;70.93;33.80;;;6.80;77.20;;;;;;5077952;28;20109;-78
2022/01/16 12:48:45;;;;;;;74.60;31.55;;;6.90;77.50;;;;;;5095545;28;20052;-78
2022/01/16 12:51:23;;;;;;;63.92;32.88;;;6.90;77.20;;;;;;5078291;28;20072;-78
2022/01/16 12:54:01;;;;;;;62.33;29.83;;;6.90;77.10;;;;;;5077191;28;20106;-79
2022/01/16 12:56:43;;;;;;;62.75;31.45;;;7.00;77.20;;;;;;5095649;28;20024;-78
2022/01/16 12:59:17;;;;;;;65.13;30.50;;;7.00;76.80;;;;;;5077235;28;20028;-77
2022/01/16 13:01:49;;;;;;;58.25;28.30;;;7.10;77.20;;;;;;5095336;28;20064;-78
2022/01/16 13:04:43;;;;;;;60.58;29.90;;;7.20;76.90;;;;;;5095241;28;20082;-78
2022/01/16 13:07:17;;;;;;;58.03;27.33;;;7.20;76.50;;;;;;5095272;28;20020;-78
2022/01/16 13:09:46;;;;;;;61.33;30.23;;;7.20;76.60;;;;;;5077724;28;20463;-77
2022/01/16 13:12:14;;;;;;;55.80;29.00;;;7.20;76.80;;;;;;5095404;28;20453;-77
2022/01/16 13:14:49;;;;;;;51.42;28.55;;;7.20;76.90;;;;;;5094843;28;20443;-78
2022/01/16 13:17:17;;;;;;;57.78;28.17;;;7.30;77.00;;;;;;5095324;28;20026;-77
2022/01/16 13:22:12;;;;;;;55.17;27.27;;;7.40;75.60;;;;;;5077150;28;20044;-78
2022/01/16 13:24:55;;;;;;;53.75;29.27;;;7.40;75.50;;;;;;5076846;28;20155;-77
2022/01/16 13:27:38;;;;;;;59.88;27.58;;;7.40;75.10;;;;;;5095166;28;20111;-78